Country
Station

 

Weather  for  Cedar City, Cedar City Municipal Airport  -  United States    United States

  
2 °C (36 °F)
    
 
 

Current METAR for Cedar City, Cedar City Municipal Airport is :

KCDC 221553Z AUTO 36003KT 10SM OVC023 02/02 A3019 RMK AO2 SLP223 T00220022

 

This is a report for Cedar City, Cedar City Municipal Airport - United States.
 
The report was made 42 minutes ago, at 15:53 UTC .
The wind was blowing at a speed of 1.5 meters per second (3.5 miles per hour) from north (360°).
 
The temperature was 2 °C (36 °F), with a dew-point at 2 °C (36 °F).
The temperature felt like 0 °C (33 °F).
 
The atmospheric pressure was 1022 hPa (30.19 inHg).
The relative humidity was 100.0%.
 
The sky was overcast from a height of 701 meter (2300 feet)
 
The overall visibility was 16.1 kilometers (10.0 miles).
 

 
 
 
 

Country :   A   B   C   D   E   F   G   H   I   J   K   L   M   N   O   P   Q   R   S   T   U   V   W   Y   Z

 

Site Info  |  Disclaimer  |  Credits  |  Privacy
Contact us  |  Add to favorites
© 2013-2019 METARs - All rights reserved